Time;durP1;ratioP1;P1;durP2;ratioP2;P2;SDS_P1;SDS_P2;PMS_P1;PMS_P2;Temp;Humidity;BMP_temperature;BMP_pressure;BME280_temperature;BME280_humidity;BME280_pressure;Samples;Min_cycle;Max_cycle;Signal;HPM_P1;HPM_P2
2021/11/18 00:01:35;;;;;;;140.20;65.75;;;;;;;;;;5033140;28;20092;-62
2021/11/18 00:04:01;;;;;;;135.45;66.82;;;;;;;;;;5033022;28;20021;-62
2021/11/18 00:06:27;;;;;;;139.82;66.97;;;;;;;;;;5033386;28;20038;-62
2021/11/18 00:08:53;;;;;;;143.35;66.22;;;;;;;;;;5033459;28;20018;-62
2021/11/18 00:11:21;;;;;;;141.98;66.65;;;;;;;;;;5033199;28;20461;-62
2021/11/18 00:13:49;;;;;;;132.15;63.88;;;;;;;;;;5033077;28;20040;-62
2021/11/18 00:16:15;;;;;;;140.70;66.20;;;;;;;;;;5033320;28;20026;-62
2021/11/18 00:18:41;;;;;;;136.05;64.50;;;;;;;;;;5032942;28;20029;-62
2021/11/18 00:21:10;;;;;;;137.18;62.58;;;;;;;;;;5033159;28;20437;-63
2021/11/18 00:23:38;;;;;;;141.48;62.05;;;;;;;;;;5032818;28;20397;-63
2021/11/18 00:26:05;;;;;;;133.35;62.97;;;;;;;;;;5032819;28;20033;-63
2021/11/18 00:28:31;;;;;;;138.43;64.50;;;;;;;;;;5032964;28;20027;-61
2021/11/18 00:30:57;;;;;;;131.85;62.00;;;;;;;;;;5032838;28;20022;-62
2021/11/18 00:33:25;;;;;;;135.55;63.28;;;;;;;;;;5032689;28;20029;-61
2021/11/18 00:35:51;;;;;;;142.02;62.13;;;;;;;;;;5032662;28;20014;-62
2021/11/18 00:38:17;;;;;;;141.70;64.47;;;;;;;;;;5032758;28;20040;-62
2021/11/18 00:40:45;;;;;;;145.77;63.85;;;;;;;;;;5032498;28;20064;-62
2021/11/18 00:43:12;;;;;;;145.30;65.22;;;;;;;;;;5032523;28;20060;-62
2021/11/18 00:45:39;;;;;;;149.48;65.13;;;;;;;;;;5032430;28;20029;-62
2021/11/18 00:48:05;;;;;;;147.27;66.25;;;;;;;;;;5032647;28;20026;-62
2021/11/18 00:50:33;;;;;;;152.35;67.45;;;;;;;;;;5032325;28;20022;-62
2021/11/18 00:52:59;;;;;;;153.88;66.00;;;;;;;;;;5031919;28;20033;-62
2021/11/18 00:55:26;;;;;;;151.55;68.40;;;;;;;;;;5032006;28;20124;-62
2021/11/18 00:57:52;;;;;;;150.52;69.65;;;;;;;;;;5032332;28;20037;-62
2021/11/18 01:00:20;;;;;;;153.00;69.97;;;;;;;;;;5032547;28;20048;-62
2021/11/18 01:02:46;;;;;;;154.77;68.25;;;;;;;;;;5031908;28;20530;-62
2021/11/18 01:05:14;;;;;;;149.00;67.45;;;;;;;;;;5032149;28;20021;-62
2021/11/18 01:07:40;;;;;;;155.77;69.57;;;;;;;;;;5031793;28;20029;-62
2021/11/18 01:10:07;;;;;;;150.75;70.60;;;;;;;;;;5031010;28;20563;-62
2021/11/18 01:12:34;;;;;;;155.02;68.93;;;;;;;;;;5029988;28;20133;-62
2021/11/18 01:15:00;;;;;;;154.93;70.20;;;;;;;;;;5031841;28;20084;-62
2021/11/18 01:17:26;;;;;;;157.07;68.25;;;;;;;;;;5031882;28;20468;-62
2021/11/18 01:19:52;;;;;;;152.65;69.30;;;;;;;;;;5031671;28;20030;-62
2021/11/18 01:22:19;;;;;;;157.00;70.00;;;;;;;;;;5031612;28;20116;-62
2021/11/18 01:24:46;;;;;;;148.88;68.85;;;;;;;;;;5031648;28;20024;-62
2021/11/18 01:27:12;;;;;;;154.95;70.03;;;;;;;;;;5031422;28;20034;-62
2021/11/18 01:29:38;;;;;;;160.18;71.85;;;;;;;;;;5031583;28;20021;-62
2021/11/18 01:32:05;;;;;;;154.93;70.72;;;;;;;;;;5031403;28;20026;-62
2021/11/18 01:34:31;;;;;;;155.30;69.38;;;;;;;;;;5031501;28;20531;-62
2021/11/18 01:36:57;;;;;;;155.60;70.00;;;;;;;;;;5031533;28;20032;-61
2021/11/18 01:39:23;;;;;;;155.27;70.65;;;;;;;;;;5031550;28;20083;-62
2021/11/18 01:41:49;;;;;;;159.15;73.55;;;;;;;;;;5031459;28;20029;-61
2021/11/18 01:44:26;;;;;;;157.40;71.40;;;;;;;;;;5031442;28;20022;-62
2021/11/18 01:46:52;;;;;;;159.18;71.65;;;;;;;;;;5031540;28;20033;-62
2021/11/18 01:49:18;;;;;;;157.23;71.25;;;;;;;;;;5031442;28;20483;-61
2021/11/18 01:51:46;;;;;;;159.27;71.28;;;;;;;;;;5012832;28;20396;-61
2021/11/18 01:54:14;;;;;;;161.55;72.53;;;;;;;;;;5031340;28;20032;-64
2021/11/18 01:56:40;;;;;;;158.68;69.97;;;;;;;;;;5031006;28;20052;-61
2021/11/18 01:59:29;;;;;;;161.32;71.80;;;;;;;;;;5031496;28;20100;-61
2021/11/18 02:01:56;;;;;;;163.60;72.90;;;;;;;;;;5018067;28;20046;-61
2021/11/18 02:04:24;;;;;;;158.70;72.22;;;;;;;;;;5031394;28;20033;-61
2021/11/18 02:06:55;;;;;;;160.77;72.93;;;;;;;;;;5031066;28;20096;-61
2021/11/18 02:09:23;;;;;;;159.05;75.00;;;;;;;;;;5031147;28;20480;-62
2021/11/18 02:11:57;;;;;;;162.07;74.28;;;;;;;;;;5031212;28;20040;-63
2021/11/18 02:14:26;;;;;;;150.60;70.20;;;;;;;;;;5031311;28;20040;-62
2021/11/18 02:16:54;;;;;;;153.10;69.85;;;;;;;;;;5031217;28;20017;-62
2021/11/18 02:19:21;;;;;;;151.15;70.57;;;;;;;;;;5031320;28;20040;-62
2021/11/18 02:21:49;;;;;;;161.00;74.20;;;;;;;;;;5031126;28;20046;-61
2021/11/18 02:24:17;;;;;;;157.45;72.90;;;;;;;;;;5031129;28;20021;-62
2021/11/18 02:26:44;;;;;;;158.15;71.97;;;;;;;;;;5030794;28;20044;-62
2021/11/18 02:29:10;;;;;;;161.13;71.43;;;;;;;;;;5030923;28;20029;-62
2021/11/18 02:31:41;;;;;;;151.43;70.53;;;;;;;;;;5030659;28;20536;-61
2021/11/18 02:34:09;;;;;;;152.25;69.60;;;;;;;;;;5012554;28;20069;-61
2021/11/18 02:36:35;;;;;;;152.90;69.90;;;;;;;;;;5030631;28;20029;-61
2021/11/18 02:39:01;;;;;;;155.15;71.35;;;;;;;;;;5030448;28;20022;-62
2021/11/18 02:41:28;;;;;;;151.35;71.18;;;;;;;;;;5030732;28;20038;-61
2021/11/18 02:43:54;;;;;;;148.25;69.22;;;;;;;;;;5030819;28;20022;-62
2021/11/18 02:46:20;;;;;;;136.73;67.35;;;;;;;;;;5030805;28;20025;-62
2021/11/18 02:48:46;;;;;;;145.02;66.53;;;;;;;;;;5030625;28;20065;-62
2021/11/18 02:51:13;;;;;;;141.93;67.40;;;;;;;;;;5030421;28;20507;-62
2021/11/18 02:53:40;;;;;;;142.95;67.03;;;;;;;;;;5030575;28;20044;-62
2021/11/18 02:56:06;;;;;;;143.45;69.07;;;;;;;;;;5030219;28;20548;-62
2021/11/18 02:58:33;;;;;;;138.05;66.45;;;;;;;;;;5012660;28;20022;-62
2021/11/18 03:01:02;;;;;;;146.65;68.53;;;;;;;;;;5030747;28;20036;-62
2021/11/18 03:03:28;;;;;;;144.93;68.05;;;;;;;;;;5033034;28;20025;-62
2021/11/18 03:05:55;;;;;;;142.95;67.93;;;;;;;;;;5036383;28;20362;-62
2021/11/18 03:08:22;;;;;;;151.60;69.85;;;;;;;;;;5034303;28;20382;-62
2021/11/18 03:10:49;;;;;;;143.63;67.30;;;;;;;;;;5016070;28;20496;-62
2021/11/18 03:13:16;;;;;;;143.00;69.07;;;;;;;;;;5034170;28;20040;-62
2021/11/18 03:15:42;;;;;;;136.27;67.15;;;;;;;;;;5034179;28;20028;-62
2021/11/18 03:18:08;;;;;;;138.05;66.35;;;;;;;;;;5034143;28;20025;-62
2021/11/18 03:20:34;;;;;;;144.38;68.93;;;;;;;;;;5034245;28;20025;-62
2021/11/18 03:23:00;;;;;;;143.40;66.32;;;;;;;;;;5034227;28;20029;-62
2021/11/18 03:25:31;;;;;;;151.80;67.45;;;;;;;;;;5033856;28;20041;-62
2021/11/18 03:27:57;;;;;;;146.32;68.85;;;;;;;;;;5033996;28;20397;-62
2021/11/18 03:30:26;;;;;;;144.60;68.40;;;;;;;;;;5034123;28;20115;-62
2021/11/18 03:32:53;;;;;;;141.50;67.53;;;;;;;;;;5033861;28;20133;-62
2021/11/18 03:35:19;;;;;;;139.73;66.35;;;;;;;;;;5033882;28;20034;-62
2021/11/18 03:37:45;;;;;;;144.73;67.97;;;;;;;;;;5033899;28;20112;-62
2021/11/18 03:40:12;;;;;;;146.88;69.75;;;;;;;;;;5033857;28;20350;-62
2021/11/18 03:42:38;;;;;;;149.68;67.75;;;;;;;;;;5033552;28;20033;-62
2021/11/18 03:45:05;;;;;;;145.80;69.32;;;;;;;;;;5033570;28;20101;-62
2021/11/18 03:47:31;;;;;;;142.43;68.18;;;;;;;;;;5033623;28;20033;-62
2021/11/18 03:49:58;;;;;;;149.65;69.07;;;;;;;;;;5033607;28;20025;-62
2021/11/18 03:52:24;;;;;;;145.40;68.05;;;;;;;;;;5033593;28;20022;-62
2021/11/18 03:54:50;;;;;;;148.95;68.85;;;;;;;;;;5032961;28;20026;-62
2021/11/18 03:57:16;;;;;;;143.00;66.10;;;;;;;;;;5033064;28;20030;-62
2021/11/18 03:59:44;;;;;;;136.48;67.53;;;;;;;;;;5033012;28;20036;-62
2021/11/18 04:02:10;;;;;;;139.30;66.13;;;;;;;;;;5032850;28;20085;-62
2021/11/18 04:04:44;;;;;;;136.38;65.82;;;;;;;;;;5033346;28;20504;-63
2021/11/18 04:07:11;;;;;;;140.63;67.15;;;;;;;;;;5033241;28;20115;-62
2021/11/18 04:09:37;;;;;;;147.13;68.00;;;;;;;;;;5033240;28;20025;-62
2021/11/18 04:12:04;;;;;;;139.38;68.45;;;;;;;;;;5032813;28;20029;-62
2021/11/18 04:14:31;;;;;;;145.32;69.07;;;;;;;;;;5032438;28;20378;-62
2021/11/18 04:16:57;;;;;;;148.48;67.63;;;;;;;;;;5032768;28;20033;-62
2021/11/18 04:19:23;;;;;;;140.18;68.00;;;;;;;;;;5032962;28;20021;-62
2021/11/18 04:21:50;;;;;;;143.35;68.57;;;;;;;;;;5032585;28;20487;-62
2021/11/18 04:24:18;;;;;;;146.75;66.80;;;;;;;;;;5032789;28;20036;-62
2021/11/18 04:26:45;;;;;;;131.90;65.03;;;;;;;;;;5032771;28;20033;-62
2021/11/18 04:29:11;;;;;;;140.38;66.55;;;;;;;;;;5032881;28;20111;-62
2021/11/18 04:31:38;;;;;;;139.32;65.35;;;;;;;;;;5032561;28;20032;-62
2021/11/18 04:34:06;;;;;;;139.93;68.10;;;;;;;;;;5032770;28;20032;-62
2021/11/18 04:36:33;;;;;;;128.88;64.57;;;;;;;;;;5032692;28;20025;-62
2021/11/18 04:38:59;;;;;;;140.27;66.30;;;;;;;;;;5032808;28;20024;-62
2021/11/18 04:41:26;;;;;;;137.55;65.57;;;;;;;;;;5032525;28;20380;-62
2021/11/18 04:43:52;;;;;;;137.88;66.13;;;;;;;;;;5032510;28;20484;-62
2021/11/18 04:46:20;;;;;;;132.75;64.82;;;;;;;;;;5032566;28;20032;-62
2021/11/18 04:48:46;;;;;;;134.23;65.88;;;;;;;;;;5032537;28;20381;-62
2021/11/18 04:51:14;;;;;;;132.63;65.63;;;;;;;;;;5032574;28;20440;-62
2021/11/18 04:53:40;;;;;;;131.70;65.85;;;;;;;;;;5032484;28;20039;-62
2021/11/18 04:56:07;;;;;;;131.82;64.63;;;;;;;;;;5032054;28;20501;-62
2021/11/18 04:58:33;;;;;;;129.93;64.50;;;;;;;;;;5032283;28;20029;-62
2021/11/18 05:00:59;;;;;;;134.43;66.40;;;;;;;;;;5032233;28;20032;-61
2021/11/18 05:03:27;;;;;;;131.90;64.07;;;;;;;;;;5032076;28;20381;-61
2021/11/18 05:05:53;;;;;;;131.70;65.15;;;;;;;;;;5013882;28;20547;-62
2021/11/18 05:08:19;;;;;;;133.20;65.65;;;;;;;;;;5032016;28;20029;-61
2021/11/18 05:10:47;;;;;;;137.25;68.32;;;;;;;;;;5032400;28;20562;-61
2021/11/18 05:13:14;;;;;;;128.10;63.25;;;;;;;;;;5032136;28;20104;-62
2021/11/18 05:15:44;;;;;;;128.27;66.03;;;;;;;;;;5032142;28;20021;-61
2021/11/18 05:18:10;;;;;;;131.90;66.70;;;;;;;;;;5031944;28;20036;-62
2021/11/18 05:20:37;;;;;;;137.40;67.57;;;;;;;;;;5031787;28;20088;-61
2021/11/18 05:23:03;;;;;;;130.85;65.70;;;;;;;;;;5031865;28;20072;-61
2021/11/18 05:25:30;;;;;;;131.13;63.42;;;;;;;;;;5031246;28;20033;-62
2021/11/18 05:27:57;;;;;;;127.15;64.57;;;;;;;;;;5031265;28;20033;-61
2021/11/18 05:30:27;;;;;;;124.70;64.43;;;;;;;;;;5031727;28;20021;-61
2021/11/18 05:32:53;;;;;;;128.27;65.65;;;;;;;;;;5031437;28;20109;-61
2021/11/18 05:35:20;;;;;;;138.38;68.75;;;;;;;;;;5031467;28;20025;-61
2021/11/18 05:37:46;;;;;;;133.35;65.88;;;;;;;;;;5031754;28;20025;-61
2021/11/18 05:40:12;;;;;;;128.93;67.47;;;;;;;;;;5031155;28;20068;-61
2021/11/18 05:42:39;;;;;;;127.78;64.57;;;;;;;;;;5031166;28;20041;-61
2021/11/18 05:45:07;;;;;;;120.18;63.17;;;;;;;;;;5031079;28;20509;-61
2021/11/18 05:47:33;;;;;;;127.05;65.43;;;;;;;;;;5030827;28;20059;-61
2021/11/18 05:49:59;;;;;;;123.53;66.20;;;;;;;;;;5030784;28;20025;-61
2021/11/18 05:52:26;;;;;;;124.63;65.13;;;;;;;;;;5030851;28;20025;-61
2021/11/18 05:54:52;;;;;;;125.50;66.30;;;;;;;;;;5031082;28;20036;-62
2021/11/18 05:57:18;;;;;;;130.50;65.38;;;;;;;;;;5030685;28;20080;-61
2021/11/18 05:59:44;;;;;;;126.68;64.80;;;;;;;;;;5012991;28;20083;-61
2021/11/18 06:02:10;;;;;;;124.95;63.92;;;;;;;;;;5030784;28;20044;-62
2021/11/18 06:04:36;;;;;;;125.20;65.72;;;;;;;;;;5030977;28;20104;-61
2021/11/18 06:07:03;;;;;;;125.13;63.35;;;;;;;;;;5031091;28;20036;-61
2021/11/18 06:09:29;;;;;;;122.75;64.13;;;;;;;;;;5031092;28;20113;-63
2021/11/18 06:11:55;;;;;;;125.18;65.50;;;;;;;;;;5036930;28;20040;-63
2021/11/18 06:14:21;;;;;;;123.88;64.43;;;;;;;;;;5017163;28;20033;-60
2021/11/18 06:16:47;;;;;;;128.80;65.85;;;;;;;;;;5013631;28;20034;-62
2021/11/18 06:19:14;;;;;;;128.77;67.50;;;;;;;;;;5011156;28;20025;-60
2021/11/18 06:21:43;;;;;;;126.68;65.38;;;;;;;;;;5010986;28;20065;-62
2021/11/18 06:24:10;;;;;;;122.65;65.43;;;;;;;;;;5018141;28;20029;-60
2021/11/18 06:26:36;;;;;;;117.85;62.38;;;;;;;;;;5020088;28;20096;-61
2021/11/18 06:29:03;;;;;;;123.35;64.22;;;;;;;;;;5021502;28;20068;-60
2021/11/18 06:31:29;;;;;;;132.35;68.00;;;;;;;;;;5019853;28;20025;-61
2021/11/18 06:33:57;;;;;;;131.15;66.63;;;;;;;;;;5017104;28;20610;-61
2021/11/18 06:36:24;;;;;;;124.68;65.03;;;;;;;;;;5016642;28;20161;-61
2021/11/18 06:38:51;;;;;;;129.93;70.40;;;;;;;;;;5020686;28;20465;-61
2021/11/18 06:41:18;;;;;;;126.60;67.22;;;;;;;;;;5021141;28;20030;-62
2021/11/18 06:43:44;;;;;;;127.93;66.35;;;;;;;;;;5005054;28;20030;-61
2021/11/18 06:46:11;;;;;;;121.80;64.00;;;;;;;;;;5024648;28;20489;-61
2021/11/18 06:48:37;;;;;;;122.03;62.47;;;;;;;;;;5024325;28;20042;-62
2021/11/18 06:51:06;;;;;;;125.28;64.75;;;;;;;;;;5022548;28;20022;-62
2021/11/18 06:53:33;;;;;;;120.32;65.00;;;;;;;;;;5022417;28;20021;-63
2021/11/18 06:55:59;;;;;;;125.22;65.82;;;;;;;;;;5023678;28;20045;-60
2021/11/18 06:58:26;;;;;;;123.78;66.30;;;;;;;;;;5022610;28;20026;-62
2021/11/18 07:00:52;;;;;;;125.45;67.28;;;;;;;;;;5034322;28;20028;-61
2021/11/18 07:03:18;;;;;;;121.75;65.55;;;;;;;;;;5030111;28;20033;-61
2021/11/18 07:05:45;;;;;;;126.55;63.65;;;;;;;;;;5022542;28;20026;-61
2021/11/18 07:08:11;;;;;;;119.50;64.38;;;;;;;;;;5022548;28;20101;-61
2021/11/18 07:10:38;;;;;;;124.75;64.82;;;;;;;;;;5022776;28;20057;-60
2021/11/18 07:13:05;;;;;;;120.07;64.95;;;;;;;;;;5023336;28;20017;-62
2021/11/18 07:15:31;;;;;;;129.95;66.70;;;;;;;;;;5026065;28;20472;-61
2021/11/18 07:17:58;;;;;;;118.43;63.40;;;;;;;;;;5033920;28;20033;-61
2021/11/18 07:20:25;;;;;;;117.13;64.20;;;;;;;;;;5033918;28;20018;-62
2021/11/18 07:22:51;;;;;;;118.15;64.10;;;;;;;;;;5024819;28;20478;-61
2021/11/18 07:25:18;;;;;;;129.40;67.43;;;;;;;;;;5022516;28;20092;-63
2021/11/18 07:27:45;;;;;;;121.80;66.25;;;;;;;;;;5023735;28;20440;-61
2021/11/18 07:30:12;;;;;;;125.97;66.15;;;;;;;;;;5022024;28;20018;-61
2021/11/18 07:32:38;;;;;;;121.28;65.13;;;;;;;;;;5022299;28;20112;-60
2021/11/18 07:35:04;;;;;;;127.22;65.82;;;;;;;;;;5021465;28;20022;-62
2021/11/18 07:37:30;;;;;;;133.80;65.53;;;;;;;;;;5023321;28;20033;-61
2021/11/18 07:39:58;;;;;;;133.27;68.50;;;;;;;;;;5022788;28;20060;-63
2021/11/18 07:42:24;;;;;;;125.72;65.70;;;;;;;;;;5024292;28;20121;-64
2021/11/18 07:44:51;;;;;;;137.05;70.43;;;;;;;;;;5029803;28;20026;-61
2021/11/18 07:47:17;;;;;;;129.30;66.80;;;;;;;;;;5016075;28;20466;-63
2021/11/18 07:49:43;;;;;;;125.95;67.70;;;;;;;;;;5022050;28;20555;-63
2021/11/18 07:52:09;;;;;;;122.72;64.70;;;;;;;;;;5019378;28;20060;-64
2021/11/18 07:54:36;;;;;;;126.35;64.78;;;;;;;;;;5027394;28;20025;-63
2021/11/18 07:57:02;;;;;;;121.82;65.18;;;;;;;;;;5005152;28;20049;-64
2021/11/18 07:59:29;;;;;;;108.63;57.53;;;;;;;;;;5022292;28;20052;-63
2021/11/18 08:01:56;;;;;;;108.88;56.55;;;;;;;;;;5023912;28;20025;-63
2021/11/18 08:04:22;;;;;;;118.47;60.95;;;;;;;;;;5029196;28;20025;-64
2021/11/18 08:06:49;;;;;;;98.60;52.78;;;;;;;;;;5004313;28;20026;-63
2021/11/18 08:09:16;;;;;;;90.18;47.00;;;;;;;;;;5008683;28;20041;-64
2021/11/18 08:11:47;;;;;;;73.25;40.55;;;;;;;;;;5033090;28;20025;-64
2021/11/18 08:14:14;;;;;;;71.90;37.90;;;;;;;;;;5026281;28;20388;-64
2021/11/18 08:16:41;;;;;;;70.57;36.35;;;;;;;;;;5021727;28;20052;-65
2021/11/18 08:19:08;;;;;;;76.20;41.22;;;;;;;;;;5021163;28;20041;-62
2021/11/18 08:21:35;;;;;;;71.85;39.72;;;;;;;;;;5020667;28;20069;-62
2021/11/18 08:24:01;;;;;;;80.90;41.35;;;;;;;;;;5021266;28;20022;-62
2021/11/18 08:26:28;;;;;;;92.05;49.60;;;;;;;;;;5022088;28;20122;-63
2021/11/18 08:28:54;;;;;;;103.90;55.88;;;;;;;;;;5020155;28;20109;-61
2021/11/18 08:31:20;;;;;;;81.15;41.50;;;;;;;;;;5021069;28;20109;-62
2021/11/18 08:33:46;;;;;;;84.43;44.60;;;;;;;;;;5021667;28;20033;-62
2021/11/18 08:36:13;;;;;;;76.95;40.83;;;;;;;;;;5020148;28;20033;-62
2021/11/18 08:38:40;;;;;;;84.93;45.92;;;;;;;;;;5021712;28;20128;-64
2021/11/18 08:41:08;;;;;;;72.07;38.67;;;;;;;;;;5022311;28;20543;-64
2021/11/18 08:43:36;;;;;;;75.57;44.75;;;;;;;;;;5019716;28;20055;-61
2021/11/18 08:46:02;;;;;;;82.00;44.63;;;;;;;;;;5020579;28;20032;-63
2021/11/18 08:48:29;;;;;;;74.75;40.95;;;;;;;;;;5022266;28;20873;-62
2021/11/18 08:50:56;;;;;;;76.60;41.83;;;;;;;;;;5020173;28;20101;-62
2021/11/18 08:53:24;;;;;;;78.88;42.10;;;;;;;;;;5021247;28;20068;-62
2021/11/18 08:55:50;;;;;;;81.53;42.28;;;;;;;;;;5022160;28;20076;-61
2021/11/18 08:58:18;;;;;;;84.60;47.33;;;;;;;;;;5016321;28;20600;-62
2021/11/18 09:00:53;;;;;;;86.93;45.42;;;;;;;;;;5010544;28;20025;-65
2021/11/18 09:03:21;;;;;;;84.22;45.03;;;;;;;;;;4995307;28;20473;-65
2021/11/18 09:05:48;;;;;;;82.53;42.97;;;;;;;;;;5012234;28;20033;-63
2021/11/18 09:08:14;;;;;;;87.28;46.30;;;;;;;;;;4995431;28;20052;-65
2021/11/18 09:10:41;;;;;;;87.18;47.80;;;;;;;;;;5011804;28;20382;-62
2021/11/18 09:13:07;;;;;;;88.85;44.83;;;;;;;;;;5012230;28;20113;-62
2021/11/18 09:15:34;;;;;;;86.80;46.50;;;;;;;;;;5011494;28;20022;-62
2021/11/18 09:18:05;;;;;;;89.03;46.85;;;;;;;;;;5013574;28;20036;-65
2021/11/18 09:20:33;;;;;;;89.20;47.00;;;;;;;;;;5012097;28;20026;-65
2021/11/18 09:22:59;;;;;;;86.63;45.35;;;;;;;;;;5011938;28;20088;-63
2021/11/18 09:25:28;;;;;;;85.35;46.50;;;;;;;;;;4993197;28;20069;-64
2021/11/18 09:27:55;;;;;;;85.45;45.40;;;;;;;;;;5012058;28;20453;-63
2021/11/18 09:30:29;;;;;;;81.13;47.22;;;;;;;;;;5015806;28;20029;-66
2021/11/18 09:32:56;;;;;;;86.53;46.95;;;;;;;;;;5020951;28;20036;-61
2021/11/18 09:35:24;;;;;;;88.40;47.70;;;;;;;;;;5019885;28;20072;-62
2021/11/18 09:37:51;;;;;;;81.07;45.50;;;;;;;;;;5019475;28;20030;-61
2021/11/18 09:40:19;;;;;;;86.18;47.28;;;;;;;;;;5020664;28;20037;-62
2021/11/18 09:43:04;;;;;;;83.38;46.60;;;;;;;;;;5003542;28;20041;-62
2021/11/18 09:45:31;;;;;;;82.40;43.97;;;;;;;;;;5017350;28;20111;-61
2021/11/18 09:48:18;;;;;;;86.50;45.85;;;;;;;;;;5019411;28;20021;-62
2021/11/18 09:50:59;;;;;;;81.80;46.22;;;;;;;;;;5005950;28;20171;-62
2021/11/18 09:53:34;;;;;;;88.15;45.50;;;;;;;;;;5010889;28;20021;-61
2021/11/18 09:56:10;;;;;;;78.53;44.42;;;;;;;;;;5011539;28;20058;-63
2021/11/18 09:59:03;;;;;;;85.55;46.08;;;;;;;;;;5027759;28;20124;-61
2021/11/18 10:01:48;;;;;;;78.75;43.83;;;;;;;;;;5015657;28;20054;-61
2021/11/18 10:04:34;;;;;;;81.38;45.13;;;;;;;;;;5013375;28;20538;-61
2021/11/18 10:07:02;;;;;;;85.15;43.28;;;;;;;;;;5004345;28;20025;-61
2021/11/18 10:09:37;;;;;;;80.93;44.72;;;;;;;;;;5020705;28;20047;-64
2021/11/18 10:12:25;;;;;;;80.90;45.13;;;;;;;;;;5020262;28;20033;-63
2021/11/18 10:14:51;;;;;;;78.30;44.13;;;;;;;;;;5020685;28;20014;-63
2021/11/18 10:17:19;;;;;;;81.65;44.40;;;;;;;;;;5013393;28;20041;-61
2021/11/18 10:19:49;;;;;;;82.10;46.35;;;;;;;;;;5013887;28;20026;-62
2021/11/18 10:22:15;;;;;;;84.82;46.25;;;;;;;;;;4982680;28;20816;-61
2021/11/18 10:24:45;;;;;;;81.07;44.80;;;;;;;;;;5018930;28;20531;-62
2021/11/18 10:27:16;;;;;;;81.70;44.05;;;;;;;;;;5015515;28;20105;-61
2021/11/18 10:29:58;;;;;;;80.28;45.47;;;;;;;;;;5020196;28;20037;-62
2021/11/18 10:32:28;;;;;;;77.70;41.40;;;;;;;;;;5021240;28;20038;-61
2021/11/18 10:35:15;;;;;;;73.97;40.55;;;;;;;;;;5017353;28;20419;-62
2021/11/18 10:37:43;;;;;;;69.55;39.10;;;;;;;;;;5018069;28;20076;-61
2021/11/18 10:40:15;;;;;;;68.35;37.97;;;;;;;;;;5008961;28;20132;-61
2021/11/18 10:43:00;;;;;;;70.03;38.38;;;;;;;;;;5026562;28;20037;-62
2021/11/18 10:45:40;;;;;;;75.43;39.42;;;;;;;;;;5017934;28;20415;-61
2021/11/18 10:48:18;;;;;;;64.57;36.40;;;;;;;;;;5023957;28;20075;-61
2021/11/18 10:50:52;;;;;;;70.43;38.47;;;;;;;;;;5018821;28;20064;-62
2021/11/18 10:53:23;;;;;;;64.63;34.65;;;;;;;;;;5019460;28;20034;-62
2021/11/18 10:56:02;;;;;;;60.67;34.10;;;;;;;;;;5018664;28;20464;-62
2021/11/18 10:58:29;;;;;;;60.90;32.05;;;;;;;;;;5014404;28;20034;-61
2021/11/18 11:00:57;;;;;;;55.85;30.83;;;;;;;;;;5011001;28;20045;-62
2021/11/18 11:03:26;;;;;;;56.35;31.30;;;;;;;;;;5013083;28;20037;-62
2021/11/18 11:06:13;;;;;;;56.40;31.52;;;;;;;;;;5022642;28;20059;-63
2021/11/18 11:08:41;;;;;;;54.53;30.45;;;;;;;;;;5019029;28;20018;-62
2021/11/18 11:11:46;;;;;;;55.60;29.98;;;;;;;;;;5000365;28;20026;-64
2021/11/18 11:14:32;;;;;;;52.33;28.23;;;;;;;;;;4947019;29;20039;-61
2021/11/18 11:17:16;;;;;;;55.28;29.33;;;;;;;;;;4946770;29;20027;-64
2021/11/18 11:19:46;;;;;;;54.15;28.55;;;;;;;;;;4947164;29;20043;-67
2021/11/18 11:22:15;;;;;;;50.08;28.25;;;;;;;;;;4949424;29;20046;-61
2021/11/18 11:24:47;;;;;;;53.28;27.55;;;;;;;;;;4950337;28;20054;-61
2021/11/18 11:29:06;;;;;;;46.25;25.95;;;;;;;;;;5064810;28;20847;-66
2021/11/18 11:31:35;;;;;;;46.20;24.73;;;;;;;;;;5047816;28;20025;-67
2021/11/18 11:34:16;;;;;;;45.10;24.88;;;;;;;;;;5047362;28;20111;-66
2021/11/18 11:36:42;;;;;;;44.65;23.83;;;;;;;;;;5044478;28;20029;-70
2021/11/18 11:39:14;;;;;;;45.50;23.88;;;;;;;;;;5047229;28;20086;-67
2021/11/18 11:41:53;;;;;;;39.78;19.58;;;;;;;;;;5040141;28;20039;-70
2021/11/18 11:44:19;;;;;;;43.17;24.20;;;;;;;;;;5046865;28;20380;-72
2021/11/18 11:46:57;;;;;;;43.88;24.63;;;;;;;;;;5046015;28;20036;-71
2021/11/18 11:49:42;;;;;;;46.50;25.83;;;;;;;;;;5061505;28;20111;-69
2021/11/18 11:52:08;;;;;;;44.78;24.02;;;;;;;;;;5045928;28;20025;-69
2021/11/18 11:54:46;;;;;;;41.15;24.42;;;;;;;;;;5047181;28;20388;-68
2021/11/18 11:57:14;;;;;;;46.13;24.60;;;;;;;;;;5026965;28;20108;-70
2021/11/18 11:59:45;;;;;;;46.60;24.67;;;;;;;;;;5027120;28;20489;-69
2021/11/18 12:02:11;;;;;;;45.70;25.35;;;;;;;;;;5026146;28;20433;-69
2021/11/18 12:04:46;;;;;;;49.70;26.85;;;;;;;;;;5027154;28;20493;-66
2021/11/18 12:07:24;;;;;;;50.75;25.77;;;;;;;;;;5025493;28;20045;-66
2021/11/18 12:09:50;;;;;;;45.63;24.90;;;;;;;;;;5026687;28;20033;-67
2021/11/18 12:12:36;;;;;;;47.40;25.35;;;;;;;;;;5026032;28;20083;-64
2021/11/18 12:15:04;;;;;;;46.20;24.67;;;;;;;;;;5025432;28;20025;-70
2021/11/18 12:17:47;;;;;;;52.70;25.83;;;;;;;;;;5024853;28;20689;-65
2021/11/18 12:20:16;;;;;;;46.60;25.65;;;;;;;;;;5025333;28;20104;-67
2021/11/18 12:22:42;;;;;;;45.72;24.48;;;;;;;;;;5024413;28;20029;-70
2021/11/18 12:25:29;;;;;;;46.00;25.73;;;;;;;;;;5025878;28;20026;-65
2021/11/18 12:27:55;;;;;;;46.22;24.73;;;;;;;;;;5022553;28;20089;-69
2021/11/18 12:30:44;;;;;;;49.60;25.23;;;;;;;;;;5024872;28;20074;-68
2021/11/18 12:33:12;;;;;;;49.28;25.88;;;;;;;;;;5025064;28;20132;-68
2021/11/18 12:35:50;;;;;;;47.05;25.45;;;;;;;;;;5023855;28;20041;-65
2021/11/18 12:38:35;;;;;;;49.85;24.98;;;;;;;;;;5019592;28;20391;-69
2021/11/18 12:41:01;;;;;;;50.35;25.98;;;;;;;;;;5009746;28;20488;-66
2021/11/18 12:43:36;;;;;;;47.72;25.50;;;;;;;;;;5011708;28;20018;-68
2021/11/18 12:46:18;;;;;;;48.10;24.55;;;;;;;;;;5010121;28;20033;-69
2021/11/18 12:48:54;;;;;;;53.42;24.33;;;;;;;;;;5011626;28;20041;-63
2021/11/18 12:51:25;;;;;;;46.10;23.60;;;;;;;;;;5011329;28;20434;-69
2021/11/18 12:54:09;;;;;;;45.38;24.20;;;;;;;;;;5009527;28;20028;-64
2021/11/18 12:56:51;;;;;;;44.90;24.02;;;;;;;;;;5010677;28;20026;-64
2021/11/18 12:59:36;;;;;;;45.15;24.45;;;;;;;;;;5010137;28;20073;-63
2021/11/18 13:02:04;;;;;;;45.38;24.25;;;;;;;;;;5010816;28;20410;-66
2021/11/18 13:04:35;;;;;;;42.53;22.98;;;;;;;;;;5010328;28;20050;-67
2021/11/18 13:07:02;;;;;;;43.85;23.98;;;;;;;;;;5008729;28;20032;-64
2021/11/18 13:09:48;;;;;;;45.70;24.75;;;;;;;;;;5010331;28;20089;-67
2021/11/18 13:12:29;;;;;;;42.72;24.40;;;;;;;;;;5009639;28;20473;-70
2021/11/18 13:14:59;;;;;;;40.67;23.08;;;;;;;;;;5009752;28;20438;-62
2021/11/18 13:17:31;;;;;;;46.33;24.00;;;;;;;;;;5011315;28;20144;-68
2021/11/18 13:19:57;;;;;;;43.35;23.38;;;;;;;;;;5011727;28;20018;-63
2021/11/18 13:22:23;;;;;;;43.50;23.65;;;;;;;;;;5010701;28;20025;-64
2021/11/18 13:25:04;;;;;;;41.63;23.33;;;;;;;;;;5011228;28;20030;-63
2021/11/18 13:27:33;;;;;;;46.22;24.38;;;;;;;;;;5008440;28;20050;-63
2021/11/18 13:30:00;;;;;;;44.95;23.05;;;;;;;;;;5009690;28;20128;-63
2021/11/18 13:32:28;;;;;;;42.88;22.65;;;;;;;;;;5009583;28;20254;-63
2021/11/18 13:35:03;;;;;;;46.30;23.25;;;;;;;;;;5010871;28;20136;-63
2021/11/18 13:37:31;;;;;;;44.17;23.63;;;;;;;;;;5008803;28;20022;-63
2021/11/18 13:40:14;;;;;;;43.67;25.00;;;;;;;;;;5010643;28;20029;-63
2021/11/18 13:42:47;;;;;;;;;;;;;;;;;;5010932;28;20042;-67
2021/11/18 13:45:18;;;;;;;46.83;24.73;;;;;;;;;;5008785;28;19991;-62
2021/11/18 13:47:53;;;;;;;45.08;24.98;;;;;;;;;;5007936;28;20041;-62
2021/11/18 13:50:32;;;;;;;44.25;24.15;;;;;;;;;;5010229;28;20022;-64
2021/11/18 13:53:01;;;;;;;46.03;24.35;;;;;;;;;;5010280;28;20029;-64
2021/11/18 13:55:32;;;;;;;43.15;24.35;;;;;;;;;;5010386;28;20022;-63
2021/11/18 13:58:00;;;;;;;42.70;24.52;;;;;;;;;;5010462;28;20041;-64
2021/11/18 14:00:29;;;;;;;43.78;25.23;;;;;;;;;;5010600;28;20018;-64
2021/11/18 14:03:03;;;;;;;47.15;24.55;;;;;;;;;;5010699;28;20026;-64
2021/11/18 14:05:42;;;;;;;42.22;23.17;;;;;;;;;;5009496;28;20109;-64
2021/11/18 14:08:13;;;;;;;44.00;23.33;;;;;;;;;;5008237;28;20030;-64
2021/11/18 14:10:42;;;;;;;43.80;23.63;;;;;;;;;;5010417;28;20037;-64
2021/11/18 14:13:13;;;;;;;48.35;24.38;;;;;;;;;;5011250;28;20025;-64
2021/11/18 14:15:55;;;;;;;46.83;24.53;;;;;;;;;;5010358;28;20389;-64
2021/11/18 14:18:23;;;;;;;42.08;23.73;;;;;;;;;;5010305;28;20255;-64
2021/11/18 14:20:52;;;;;;;46.60;23.70;;;;;;;;;;5010177;28;20572;-64
2021/11/18 14:23:33;;;;;;;43.92;24.17;;;;;;;;;;5009768;28;20029;-64
2021/11/18 14:26:07;;;;;;;41.25;23.55;;;;;;;;;;5009857;28;20378;-64